Villanueva, NM (87583)

3:22 PM MDT on September 23, 2014 (GMT -0600)
KNMILFEL2 | Change Station
CLOSE
Current Station
Personal Weather Station
Location: Ilfeld, NM
Elevation: 6447 ft
Nearby Weather Stations

Elev 6447 ft 35.45 °N, 105.57 °W | Updated 10 seconds ago

Clear
Clear
76.8 °F
Feels Like 78 °F
N
4.9
Wind Variable Wind from West
Gusts 8.0 mph

Today
High -- | Low -- °F
--% Chance of Precip.
Yesterday
High -- | Low -- °F
Precip. -- in
6:50 AM 6:57 PM
Waning Crescent, 0% visible
Pressure 29.99 in
Visibility 10.0 miles
Clouds Few 5000 ft
Scattered Clouds 6500 ft
Heat Index 78 °F
Dew Point 49 °F
Humidity 38%
Rainfall 0.00 in
Snow Depth 0 in , 1 in , 0 in
UV 12.0 out of 12
Pollen 6.50 out of 12
Air Quality Not available.
Flu Activity Not available.
METAR KCQC 232053Z AUTO 25008KT 10SM FEW050 SCT065 23/10 A3027 RMK AO2 SLP155 T02280100 58020

More Conditions Fewer Conditions

Pressure 29.99 in
Visibility 10.0 miles
Clouds Few 5000 ft
Scattered Clouds 6500 ft
Heat Index 78 °F
Dew Point 49 °F
Humidity 38%
Rainfall 0.00 in
Snow Depth 0 in , 1 in , 0 in
UV 12.0 out of 12
Pollen 6.50 out of 12
Air Quality Not available.
Flu Activity Not available.
METAR KCQC 232053Z AUTO 25008KT 10SM FEW050 SCT065 23/10 A3027 RMK AO2 SLP155 T02280100 58020

More Conditions Fewer Conditions

Nowcast | as of 2:41 PM MDT on September 23, 2014

Isolated showers and thunderstorms will develop through the remainder of the afternoon from the east slopes of the Sandia Mountains into the Central High plains. Brief heavy rain...gusty winds and pea size hail will be possible with any storm. Areas that may be affected through 4 PM include Moriarty...Estancia...and Torreon.

×

10-Day Weather Forecast

Almanac

Astronomy

Sep. 23, 2014 Rise Set
Actual Time 6:50 AM MDT 6:57 PM MDT
Civil Twilight 6:25 AM MDT 7:22 PM MDT
Nautical Twilight 5:55 AM MDT 7:52 PM MDT
Astronomical Twilight 5:26 AM MDT 8:22 PM MDT
Moon 6:17 AM MDT 6:38 PM MDT
Length of Visible Light 12h 57m
Length of Day
12h 06m
Tomorrow will be 2m 12s shorter.
Waning Crescent, 0% of the Moon is Illuminated
Today
Waning Crescent
Sep 24
New
Oct 1
First Quarter
Oct 8
Full
Oct 15
Last Quarter

Today's Extremes

State Highs State Lows

Community

WunderPhotos

Upload Photos

1,755,793 photos uploaded!

WunderBlogs® & News

By Dr. Jeff Masters
Director of Meteorology, Weather Underground
By Kari Strenfel
Meteorologist, Weather Underground
By Christopher C. Burt
Weather Historian, Weather Underground
September 23, 2014
September 23, 2014
September 23, 2014

Nearby

Snow Depth

Station Depth Elevation
Tolby 0 in 10180 ft
Silver Creek Divide 1 in 9000 ft
Sierra Blanca 0 in 10280 ft
North Costilla 0 in 10600 ft
Quemazon 0 in 9500 ft

Earthquake Activity

City Distance Mag. Time & Date
No recent earthquake activity has been reported nearby.
Minimum magnitude displayed is 2.5.

Coastal Water Temperatures

Place Temperature
No Stations Reporting

Nearby Weather Stations